sensor_id;sensor_type;location;lat;lon;timestamp;P1;durP1;ratioP1;P2;durP2;ratioP2
6143;SDS011;3103;49.492;8.474;2022-11-20T00:00:17;13.50;;;8.60;;
6143;SDS011;3103;49.492;8.474;2022-11-20T00:02:44;16.40;;;10.50;;
6143;SDS011;3103;49.492;8.474;2022-11-20T00:05:10;15.03;;;10.03;;
6143;SDS011;3103;49.492;8.474;2022-11-20T00:07:37;16.93;;;11.23;;
6143;SDS011;3103;49.492;8.474;2022-11-20T00:10:04;15.83;;;10.47;;
6143;SDS011;3103;49.492;8.474;2022-11-20T00:12:31;14.60;;;9.20;;
6143;SDS011;3103;49.492;8.474;2022-11-20T00:14:58;16.43;;;10.33;;
6143;SDS011;3103;49.492;8.474;2022-11-20T00:17:25;19.37;;;12.03;;
6143;SDS011;3103;49.492;8.474;2022-11-20T00:19:51;17.70;;;12.00;;
6143;SDS011;3103;49.492;8.474;2022-11-20T00:22:18;17.73;;;11.23;;
6143;SDS011;3103;49.492;8.474;2022-11-20T00:24:45;22.00;;;10.93;;
6143;SDS011;3103;49.492;8.474;2022-11-20T00:27:11;16.23;;;10.43;;
6143;SDS011;3103;49.492;8.474;2022-11-20T00:29:38;16.57;;;10.53;;
6143;SDS011;3103;49.492;8.474;2022-11-20T00:32:04;12.90;;;9.37;;
6143;SDS011;3103;49.492;8.474;2022-11-20T00:34:31;14.57;;;9.73;;
6143;SDS011;3103;49.492;8.474;2022-11-20T00:36:58;18.37;;;10.87;;
6143;SDS011;3103;49.492;8.474;2022-11-20T00:39:24;14.97;;;10.97;;
6143;SDS011;3103;49.492;8.474;2022-11-20T00:41:51;15.50;;;9.90;;
6143;SDS011;3103;49.492;8.474;2022-11-20T00:44:18;16.10;;;10.30;;
6143;SDS011;3103;49.492;8.474;2022-11-20T00:46:44;12.93;;;9.03;;
6143;SDS011;3103;49.492;8.474;2022-11-20T00:49:11;16.60;;;10.50;;
6143;SDS011;3103;49.492;8.474;2022-11-20T00:51:38;13.73;;;10.00;;
6143;SDS011;3103;49.492;8.474;2022-11-20T00:54:04;14.57;;;9.87;;
6143;SDS011;3103;49.492;8.474;2022-11-20T00:56:31;15.83;;;10.30;;
6143;SDS011;3103;49.492;8.474;2022-11-20T00:58:59;14.23;;;9.37;;
6143;SDS011;3103;49.492;8.474;2022-11-20T01:01:27;14.53;;;9.30;;
6143;SDS011;3103;49.492;8.474;2022-11-20T01:03:57;9.53;;;7.17;;
6143;SDS011;3103;49.492;8.474;2022-11-20T01:06:28;11.63;;;7.37;;
6143;SDS011;3103;49.492;8.474;2022-11-20T01:08:58;15.57;;;9.83;;
6143;SDS011;3103;49.492;8.474;2022-11-20T01:11:31;11.97;;;9.13;;
6143;SDS011;3103;49.492;8.474;2022-11-20T01:14:01;13.77;;;9.70;;
6143;SDS011;3103;49.492;8.474;2022-11-20T01:16:30;16.57;;;10.27;;
6143;SDS011;3103;49.492;8.474;2022-11-20T01:18:59;15.23;;;9.27;;
6143;SDS011;3103;49.492;8.474;2022-11-20T01:21:28;13.57;;;9.30;;
6143;SDS011;3103;49.492;8.474;2022-11-20T01:24:00;12.30;;;8.83;;
6143;SDS011;3103;49.492;8.474;2022-11-20T01:26:28;16.67;;;10.60;;
6143;SDS011;3103;49.492;8.474;2022-11-20T01:28:57;14.57;;;9.67;;
6143;SDS011;3103;49.492;8.474;2022-11-20T01:31:43;16.73;;;11.30;;
6143;SDS011;3103;49.492;8.474;2022-11-20T01:34:12;14.27;;;9.73;;
6143;SDS011;3103;49.492;8.474;2022-11-20T01:36:40;12.70;;;8.67;;
6143;SDS011;3103;49.492;8.474;2022-11-20T01:39:12;15.20;;;9.50;;
6143;SDS011;3103;49.492;8.474;2022-11-20T01:41:41;14.40;;;9.83;;
6143;SDS011;3103;49.492;8.474;2022-11-20T01:44:46;13.23;;;9.27;;
6143;SDS011;3103;49.492;8.474;2022-11-20T01:47:16;15.73;;;10.07;;
6143;SDS011;3103;49.492;8.474;2022-11-20T01:49:52;14.13;;;9.77;;
6143;SDS011;3103;49.492;8.474;2022-11-20T01:52:24;13.67;;;9.57;;
6143;SDS011;3103;49.492;8.474;2022-11-20T01:55:13;13.83;;;9.40;;
6143;SDS011;3103;49.492;8.474;2022-11-20T01:57:43;13.70;;;9.37;;
6143;SDS011;3103;49.492;8.474;2022-11-20T02:00:12;13.80;;;10.10;;
6143;SDS011;3103;49.492;8.474;2022-11-20T02:02:43;14.60;;;9.70;;
6143;SDS011;3103;49.492;8.474;2022-11-20T02:05:16;13.80;;;9.03;;
6143;SDS011;3103;49.492;8.474;2022-11-20T02:07:47;12.90;;;9.30;;
6143;SDS011;3103;49.492;8.474;2022-11-20T02:10:14;12.53;;;8.70;;
6143;SDS011;3103;49.492;8.474;2022-11-20T02:12:41;11.87;;;8.30;;
6143;SDS011;3103;49.492;8.474;2022-11-20T02:15:48;12.73;;;8.63;;
6143;SDS011;3103;49.492;8.474;2022-11-20T02:18:16;12.87;;;9.17;;
6143;SDS011;3103;49.492;8.474;2022-11-20T02:20:45;13.70;;;8.57;;
6143;SDS011;3103;49.492;8.474;2022-11-20T02:25:54;13.47;;;8.77;;
6143;SDS011;3103;49.492;8.474;2022-11-20T02:28:23;13.80;;;9.63;;
6143;SDS011;3103;49.492;8.474;2022-11-20T02:30:50;13.73;;;9.00;;
6143;SDS011;3103;49.492;8.474;2022-11-20T02:33:17;11.63;;;7.50;;
6143;SDS011;3103;49.492;8.474;2022-11-20T02:35:45;10.70;;;7.73;;
6143;SDS011;3103;49.492;8.474;2022-11-20T02:38:13;10.90;;;8.27;;
6143;SDS011;3103;49.492;8.474;2022-11-20T02:40:41;11.00;;;7.30;;
6143;SDS011;3103;49.492;8.474;2022-11-20T02:43:08;9.80;;;7.10;;
6143;SDS011;3103;49.492;8.474;2022-11-20T02:45:35;10.97;;;7.37;;
6143;SDS011;3103;49.492;8.474;2022-11-20T02:48:03;12.43;;;7.03;;
6143;SDS011;3103;49.492;8.474;2022-11-20T02:50:29;13.77;;;7.60;;
6143;SDS011;3103;49.492;8.474;2022-11-20T02:52:56;11.37;;;6.80;;
6143;SDS011;3103;49.492;8.474;2022-11-20T02:55:23;12.13;;;7.10;;
6143;SDS011;3103;49.492;8.474;2022-11-20T02:57:49;12.37;;;7.03;;
6143;SDS011;3103;49.492;8.474;2022-11-20T03:00:16;9.47;;;7.03;;
6143;SDS011;3103;49.492;8.474;2022-11-20T03:02:43;9.50;;;6.83;;
6143;SDS011;3103;49.492;8.474;2022-11-20T03:05:09;8.33;;;6.73;;
6143;SDS011;3103;49.492;8.474;2022-11-20T03:07:36;10.57;;;7.10;;
6143;SDS011;3103;49.492;8.474;2022-11-20T03:10:03;11.40;;;7.17;;
6143;SDS011;3103;49.492;8.474;2022-11-20T03:12:31;8.90;;;6.77;;
6143;SDS011;3103;49.492;8.474;2022-11-20T03:14:57;11.90;;;7.57;;
6143;SDS011;3103;49.492;8.474;2022-11-20T03:17:24;11.07;;;7.93;;
6143;SDS011;3103;49.492;8.474;2022-11-20T03:19:50;11.63;;;8.07;;
6143;SDS011;3103;49.492;8.474;2022-11-20T03:22:17;11.77;;;7.83;;
6143;SDS011;3103;49.492;8.474;2022-11-20T03:24:44;14.20;;;7.67;;
6143;SDS011;3103;49.492;8.474;2022-11-20T03:27:10;11.83;;;8.13;;
6143;SDS011;3103;49.492;8.474;2022-11-20T03:29:37;10.23;;;6.87;;
6143;SDS011;3103;49.492;8.474;2022-11-20T03:32:04;12.07;;;7.47;;
6143;SDS011;3103;49.492;8.474;2022-11-20T03:34:31;12.70;;;7.93;;
6143;SDS011;3103;49.492;8.474;2022-11-20T03:36:57;12.77;;;8.50;;
6143;SDS011;3103;49.492;8.474;2022-11-20T03:39:24;12.03;;;8.63;;
6143;SDS011;3103;49.492;8.474;2022-11-20T03:41:51;10.30;;;7.70;;
6143;SDS011;3103;49.492;8.474;2022-11-20T03:44:17;11.07;;;7.33;;
6143;SDS011;3103;49.492;8.474;2022-11-20T03:46:48;13.30;;;8.97;;
6143;SDS011;3103;49.492;8.474;2022-11-20T03:49:15;12.37;;;8.17;;
6143;SDS011;3103;49.492;8.474;2022-11-20T03:51:41;12.50;;;8.50;;
6143;SDS011;3103;49.492;8.474;2022-11-20T03:54:08;13.27;;;8.90;;
6143;SDS011;3103;49.492;8.474;2022-11-20T03:56:36;12.77;;;8.40;;
6143;SDS011;3103;49.492;8.474;2022-11-20T03:59:04;10.97;;;7.80;;
6143;SDS011;3103;49.492;8.474;2022-11-20T04:01:32;10.00;;;7.43;;
6143;SDS011;3103;49.492;8.474;2022-11-20T04:04:01;10.67;;;7.33;;
6143;SDS011;3103;49.492;8.474;2022-11-20T04:06:28;11.87;;;7.73;;
6143;SDS011;3103;49.492;8.474;2022-11-20T04:08:57;12.97;;;7.97;;
6143;SDS011;3103;49.492;8.474;2022-11-20T04:11:28;13.57;;;8.20;;
6143;SDS011;3103;49.492;8.474;2022-11-20T04:14:04;12.03;;;7.00;;
6143;SDS011;3103;49.492;8.474;2022-11-20T04:16:33;13.40;;;8.40;;
6143;SDS011;3103;49.492;8.474;2022-11-20T04:19:03;9.30;;;6.97;;
6143;SDS011;3103;49.492;8.474;2022-11-20T04:21:31;9.77;;;6.67;;
6143;SDS011;3103;49.492;8.474;2022-11-20T04:24:02;10.37;;;6.93;;
6143;SDS011;3103;49.492;8.474;2022-11-20T04:26:29;10.80;;;7.03;;
6143;SDS011;3103;49.492;8.474;2022-11-20T04:28:56;10.57;;;6.87;;
6143;SDS011;3103;49.492;8.474;2022-11-20T04:31:25;9.07;;;6.80;;
6143;SDS011;3103;49.492;8.474;2022-11-20T04:33:53;10.13;;;6.97;;
6143;SDS011;3103;49.492;8.474;2022-11-20T04:36:21;9.47;;;6.67;;
6143;SDS011;3103;49.492;8.474;2022-11-20T04:38:54;11.17;;;7.77;;
6143;SDS011;3103;49.492;8.474;2022-11-20T04:41:26;9.13;;;6.50;;
6143;SDS011;3103;49.492;8.474;2022-11-20T04:43:55;9.03;;;6.53;;
6143;SDS011;3103;49.492;8.474;2022-11-20T04:46:26;11.13;;;7.27;;
6143;SDS011;3103;49.492;8.474;2022-11-20T04:48:53;9.57;;;7.07;;
6143;SDS011;3103;49.492;8.474;2022-11-20T04:51:20;11.13;;;7.30;;
6143;SDS011;3103;49.492;8.474;2022-11-20T04:53:47;10.07;;;7.40;;
6143;SDS011;3103;49.492;8.474;2022-11-20T04:56:14;10.60;;;7.57;;
6143;SDS011;3103;49.492;8.474;2022-11-20T04:58:41;10.30;;;7.20;;
6143;SDS011;3103;49.492;8.474;2022-11-20T05:01:12;11.47;;;7.40;;
6143;SDS011;3103;49.492;8.474;2022-11-20T05:03:40;11.13;;;7.80;;
6143;SDS011;3103;49.492;8.474;2022-11-20T05:06:08;11.60;;;7.33;;
6143;SDS011;3103;49.492;8.474;2022-11-20T05:08:36;12.50;;;7.40;;
6143;SDS011;3103;49.492;8.474;2022-11-20T05:11:05;11.20;;;7.70;;
6143;SDS011;3103;49.492;8.474;2022-11-20T05:13:45;11.40;;;7.40;;
6143;SDS011;3103;49.492;8.474;2022-11-20T05:16:17;11.17;;;7.50;;
6143;SDS011;3103;49.492;8.474;2022-11-20T05:18:46;10.60;;;6.90;;
6143;SDS011;3103;49.492;8.474;2022-11-20T05:21:13;11.07;;;7.30;;
6143;SDS011;3103;49.492;8.474;2022-11-20T05:23:40;10.40;;;6.97;;
6143;SDS011;3103;49.492;8.474;2022-11-20T05:26:08;9.13;;;6.53;;
6143;SDS011;3103;49.492;8.474;2022-11-20T05:28:39;10.70;;;6.97;;
6143;SDS011;3103;49.492;8.474;2022-11-20T05:31:06;10.20;;;6.60;;
6143;SDS011;3103;49.492;8.474;2022-11-20T05:33:35;9.17;;;6.53;;
6143;SDS011;3103;49.492;8.474;2022-11-20T05:36:03;9.63;;;6.47;;
6143;SDS011;3103;49.492;8.474;2022-11-20T05:38:30;8.37;;;6.47;;
6143;SDS011;3103;49.492;8.474;2022-11-20T05:41:04;11.23;;;6.30;;
6143;SDS011;3103;49.492;8.474;2022-11-20T05:43:37;9.40;;;6.70;;
6143;SDS011;3103;49.492;8.474;2022-11-20T05:46:05;10.00;;;7.00;;
6143;SDS011;3103;49.492;8.474;2022-11-20T05:48:33;9.50;;;6.87;;
6143;SDS011;3103;49.492;8.474;2022-11-20T05:51:01;11.70;;;7.43;;
6143;SDS011;3103;49.492;8.474;2022-11-20T05:53:29;11.77;;;7.73;;
6143;SDS011;3103;49.492;8.474;2022-11-20T05:56:01;9.90;;;6.63;;
6143;SDS011;3103;49.492;8.474;2022-11-20T05:58:30;14.70;;;8.70;;
6143;SDS011;3103;49.492;8.474;2022-11-20T06:01:05;14.10;;;8.47;;
6143;SDS011;3103;49.492;8.474;2022-11-20T06:03:33;16.43;;;9.90;;
6143;SDS011;3103;49.492;8.474;2022-11-20T06:06:00;15.53;;;10.07;;
6143;SDS011;3103;49.492;8.474;2022-11-20T06:08:27;14.37;;;9.73;;
6143;SDS011;3103;49.492;8.474;2022-11-20T06:10:54;14.63;;;9.90;;
6143;SDS011;3103;49.492;8.474;2022-11-20T06:13:21;15.90;;;10.17;;
6143;SDS011;3103;49.492;8.474;2022-11-20T06:15:49;13.63;;;9.03;;
6143;SDS011;3103;49.492;8.474;2022-11-20T06:18:16;11.60;;;8.17;;
6143;SDS011;3103;49.492;8.474;2022-11-20T06:20:43;13.20;;;8.97;;
6143;SDS011;3103;49.492;8.474;2022-11-20T06:23:10;14.20;;;8.13;;
6143;SDS011;3103;49.492;8.474;2022-11-20T06:25:38;13.30;;;8.37;;
6143;SDS011;3103;49.492;8.474;2022-11-20T06:28:05;12.43;;;8.70;;
6143;SDS011;3103;49.492;8.474;2022-11-20T06:30:32;13.47;;;8.73;;
6143;SDS011;3103;49.492;8.474;2022-11-20T06:32:59;14.53;;;8.57;;
6143;SDS011;3103;49.492;8.474;2022-11-20T06:35:26;11.83;;;7.90;;
6143;SDS011;3103;49.492;8.474;2022-11-20T06:37:53;11.87;;;7.60;;
6143;SDS011;3103;49.492;8.474;2022-11-20T06:40:19;20.30;;;8.47;;
6143;SDS011;3103;49.492;8.474;2022-11-20T06:42:46;12.43;;;7.37;;
6143;SDS011;3103;49.492;8.474;2022-11-20T06:45:13;10.40;;;7.77;;
6143;SDS011;3103;49.492;8.474;2022-11-20T06:47:39;13.90;;;8.80;;
6143;SDS011;3103;49.492;8.474;2022-11-20T06:50:06;12.20;;;7.80;;
6143;SDS011;3103;49.492;8.474;2022-11-20T06:52:33;12.07;;;8.27;;
6143;SDS011;3103;49.492;8.474;2022-11-20T06:55:06;11.93;;;7.70;;
6143;SDS011;3103;49.492;8.474;2022-11-20T06:57:33;13.13;;;7.80;;
6143;SDS011;3103;49.492;8.474;2022-11-20T07:00:00;12.30;;;8.03;;
6143;SDS011;3103;49.492;8.474;2022-11-20T07:02:29;11.47;;;7.83;;
6143;SDS011;3103;49.492;8.474;2022-11-20T07:04:56;14.13;;;8.40;;
6143;SDS011;3103;49.492;8.474;2022-11-20T07:07:23;12.30;;;7.90;;
6143;SDS011;3103;49.492;8.474;2022-11-20T07:09:49;11.83;;;7.73;;
6143;SDS011;3103;49.492;8.474;2022-11-20T07:12:16;13.27;;;7.97;;
6143;SDS011;3103;49.492;8.474;2022-11-20T07:14:43;13.33;;;8.20;;
6143;SDS011;3103;49.492;8.474;2022-11-20T07:17:09;12.53;;;8.37;;
6143;SDS011;3103;49.492;8.474;2022-11-20T07:19:36;12.20;;;7.53;;
6143;SDS011;3103;49.492;8.474;2022-11-20T07:22:03;13.03;;;7.77;;
6143;SDS011;3103;49.492;8.474;2022-11-20T07:24:29;10.90;;;7.53;;
6143;SDS011;3103;49.492;8.474;2022-11-20T07:26:56;11.67;;;8.20;;
6143;SDS011;3103;49.492;8.474;2022-11-20T07:29:23;14.03;;;8.13;;
6143;SDS011;3103;49.492;8.474;2022-11-20T07:31:49;14.53;;;8.40;;
6143;SDS011;3103;49.492;8.474;2022-11-20T07:34:16;10.77;;;7.43;;
6143;SDS011;3103;49.492;8.474;2022-11-20T07:36:43;12.47;;;7.80;;
6143;SDS011;3103;49.492;8.474;2022-11-20T07:39:09;11.07;;;8.10;;
6143;SDS011;3103;49.492;8.474;2022-11-20T07:41:36;11.60;;;7.20;;
6143;SDS011;3103;49.492;8.474;2022-11-20T07:44:03;11.10;;;7.70;;
6143;SDS011;3103;49.492;8.474;2022-11-20T07:46:30;11.73;;;7.97;;
6143;SDS011;3103;49.492;8.474;2022-11-20T07:48:56;13.93;;;8.33;;
6143;SDS011;3103;49.492;8.474;2022-11-20T07:51:23;13.77;;;9.20;;
6143;SDS011;3103;49.492;8.474;2022-11-20T07:53:51;12.50;;;8.47;;
6143;SDS011;3103;49.492;8.474;2022-11-20T07:56:18;17.77;;;9.40;;
6143;SDS011;3103;49.492;8.474;2022-11-20T07:58:45;18.30;;;10.93;;
6143;SDS011;3103;49.492;8.474;2022-11-20T08:01:11;16.40;;;11.13;;
6143;SDS011;3103;49.492;8.474;2022-11-20T08:03:38;15.00;;;9.33;;
6143;SDS011;3103;49.492;8.474;2022-11-20T08:06:05;15.70;;;9.53;;
6143;SDS011;3103;49.492;8.474;2022-11-20T08:08:32;19.20;;;9.73;;
6143;SDS011;3103;49.492;8.474;2022-11-20T08:11:01;16.63;;;9.13;;
6143;SDS011;3103;49.492;8.474;2022-11-20T08:13:51;14.57;;;8.67;;
6143;SDS011;3103;49.492;8.474;2022-11-20T08:16:36;13.83;;;9.00;;
6143;SDS011;3103;49.492;8.474;2022-11-20T08:19:03;13.93;;;8.57;;
6143;SDS011;3103;49.492;8.474;2022-11-20T08:21:30;12.83;;;8.10;;
6143;SDS011;3103;49.492;8.474;2022-11-20T08:24:03;13.33;;;8.47;;
6143;SDS011;3103;49.492;8.474;2022-11-20T08:26:30;11.07;;;7.90;;
6143;SDS011;3103;49.492;8.474;2022-11-20T08:28:57;9.63;;;7.00;;
6143;SDS011;3103;49.492;8.474;2022-11-20T08:31:25;8.93;;;6.77;;
6143;SDS011;3103;49.492;8.474;2022-11-20T08:33:53;10.03;;;6.40;;
6143;SDS011;3103;49.492;8.474;2022-11-20T08:36:20;14.10;;;7.77;;
6143;SDS011;3103;49.492;8.474;2022-11-20T08:38:47;11.57;;;7.57;;
6143;SDS011;3103;49.492;8.474;2022-11-20T08:41:15;12.93;;;8.37;;
6143;SDS011;3103;49.492;8.474;2022-11-20T08:43:55;9.73;;;7.00;;
6143;SDS011;3103;49.492;8.474;2022-11-20T08:46:25;13.00;;;8.90;;
6143;SDS011;3103;49.492;8.474;2022-11-20T08:48:53;14.20;;;9.20;;
6143;SDS011;3103;49.492;8.474;2022-11-20T08:51:21;13.83;;;9.57;;
6143;SDS011;3103;49.492;8.474;2022-11-20T08:53:47;15.30;;;9.80;;
6143;SDS011;3103;49.492;8.474;2022-11-20T08:56:17;16.10;;;11.53;;
6143;SDS011;3103;49.492;8.474;2022-11-20T08:58:44;17.40;;;10.30;;
6143;SDS011;3103;49.492;8.474;2022-11-20T09:01:31;19.63;;;11.67;;
6143;SDS011;3103;49.492;8.474;2022-11-20T09:03:58;17.80;;;11.23;;
6143;SDS011;3103;49.492;8.474;2022-11-20T09:06:26;20.30;;;12.60;;
6143;SDS011;3103;49.492;8.474;2022-11-20T09:08:52;20.30;;;11.97;;
6143;SDS011;3103;49.492;8.474;2022-11-20T09:11:20;18.37;;;10.97;;
6143;SDS011;3103;49.492;8.474;2022-11-20T09:13:47;18.30;;;11.67;;
6143;SDS011;3103;49.492;8.474;2022-11-20T09:16:13;20.27;;;11.87;;
6143;SDS011;3103;49.492;8.474;2022-11-20T09:18:40;19.63;;;11.87;;
6143;SDS011;3103;49.492;8.474;2022-11-20T09:21:11;21.47;;;12.53;;
6143;SDS011;3103;49.492;8.474;2022-11-20T09:23:40;22.23;;;12.47;;
6143;SDS011;3103;49.492;8.474;2022-11-20T09:26:08;26.30;;;13.50;;
6143;SDS011;3103;49.492;8.474;2022-11-20T09:28:39;28.13;;;14.57;;
6143;SDS011;3103;49.492;8.474;2022-11-20T09:31:07;27.97;;;13.57;;
6143;SDS011;3103;49.492;8.474;2022-11-20T09:33:35;28.43;;;13.83;;
6143;SDS011;3103;49.492;8.474;2022-11-20T09:36:02;25.00;;;13.97;;
6143;SDS011;3103;49.492;8.474;2022-11-20T09:38:29;25.17;;;13.63;;
6143;SDS011;3103;49.492;8.474;2022-11-20T09:41:03;26.33;;;13.97;;
6143;SDS011;3103;49.492;8.474;2022-11-20T09:46:28;26.87;;;14.20;;
6143;SDS011;3103;49.492;8.474;2022-11-20T09:49:19;32.00;;;14.90;;
6143;SDS011;3103;49.492;8.474;2022-11-20T09:51:59;30.17;;;15.23;;
6143;SDS011;3103;49.492;8.474;2022-11-20T09:54:30;26.00;;;14.53;;
6143;SDS011;3103;49.492;8.474;2022-11-20T09:57:11;28.67;;;14.90;;
6143;SDS011;3103;49.492;8.474;2022-11-20T09:59:41;27.57;;;15.10;;
6143;SDS011;3103;49.492;8.474;2022-11-20T10:04:57;27.43;;;14.30;;
6143;SDS011;3103;49.492;8.474;2022-11-20T10:07:34;29.03;;;14.57;;
6143;SDS011;3103;49.492;8.474;2022-11-20T10:10:43;27.10;;;14.67;;
6143;SDS011;3103;49.492;8.474;2022-11-20T10:27:48;25.63;;;14.43;;
6143;SDS011;3103;49.492;8.474;2022-11-20T10:30:17;32.70;;;17.57;;
6143;SDS011;3103;49.492;8.474;2022-11-20T10:32:47;26.10;;;15.20;;
6143;SDS011;3103;49.492;8.474;2022-11-20T10:37:58;26.23;;;14.97;;
6143;SDS011;3103;49.492;8.474;2022-11-20T10:43:13;26.03;;;14.23;;
6143;SDS011;3103;49.492;8.474;2022-11-20T10:48:25;28.23;;;14.97;;
6143;SDS011;3103;49.492;8.474;2022-11-20T10:53:50;28.50;;;13.97;;
6143;SDS011;3103;49.492;8.474;2022-11-20T10:59:25;32.50;;;17.87;;
6143;SDS011;3103;49.492;8.474;2022-11-20T11:01:54;37.10;;;18.33;;
6143;SDS011;3103;49.492;8.474;2022-11-20T11:07:09;29.83;;;14.87;;
6143;SDS011;3103;49.492;8.474;2022-11-20T11:09:41;26.80;;;15.33;;
6143;SDS011;3103;49.492;8.474;2022-11-20T11:12:12;30.37;;;16.13;;
6143;SDS011;3103;49.492;8.474;2022-11-20T11:14:47;32.17;;;15.93;;
6143;SDS011;3103;49.492;8.474;2022-11-20T11:17:28;28.37;;;14.87;;
6143;SDS011;3103;49.492;8.474;2022-11-20T11:19:57;27.07;;;14.60;;
6143;SDS011;3103;49.492;8.474;2022-11-20T11:22:33;31.30;;;15.20;;
6143;SDS011;3103;49.492;8.474;2022-11-20T11:25:09;26.20;;;14.10;;
6143;SDS011;3103;49.492;8.474;2022-11-20T11:27:46;26.63;;;13.33;;
6143;SDS011;3103;49.492;8.474;2022-11-20T11:30:16;22.40;;;12.73;;
6143;SDS011;3103;49.492;8.474;2022-11-20T11:32:45;15.40;;;9.43;;
6143;SDS011;3103;49.492;8.474;2022-11-20T11:35:53;19.37;;;9.73;;
6143;SDS011;3103;49.492;8.474;2022-11-20T11:38:17;14.63;;;8.87;;
6143;SDS011;3103;49.492;8.474;2022-11-20T11:40:48;14.73;;;8.67;;
6143;SDS011;3103;49.492;8.474;2022-11-20T11:43:22;13.00;;;8.33;;
6143;SDS011;3103;49.492;8.474;2022-11-20T11:48:56;14.97;;;8.77;;
6143;SDS011;3103;49.492;8.474;2022-11-20T11:54:10;15.67;;;10.07;;
6143;SDS011;3103;49.492;8.474;2022-11-20T11:56:44;16.03;;;9.17;;
6143;SDS011;3103;49.492;8.474;2022-11-20T11:59:12;11.97;;;8.40;;
6143;SDS011;3103;49.492;8.474;2022-11-20T12:01:49;17.07;;;11.07;;
6143;SDS011;3103;49.492;8.474;2022-11-20T12:04:30;12.90;;;8.27;;
6143;SDS011;3103;49.492;8.474;2022-11-20T12:10:19;14.33;;;8.57;;
6143;SDS011;3103;49.492;8.474;2022-11-20T12:13:04;18.70;;;9.27;;
6143;SDS011;3103;49.492;8.474;2022-11-20T12:15:44;12.27;;;7.60;;
6143;SDS011;3103;49.492;8.474;2022-11-20T12:18:19;11.20;;;7.13;;
6143;SDS011;3103;49.492;8.474;2022-11-20T12:20:57;13.83;;;7.43;;
6143;SDS011;3103;49.492;8.474;2022-11-20T12:23:29;12.27;;;7.73;;
6143;SDS011;3103;49.492;8.474;2022-11-20T12:26:00;12.80;;;6.73;;
6143;SDS011;3103;49.492;8.474;2022-11-20T12:28:44;10.70;;;6.50;;
6143;SDS011;3103;49.492;8.474;2022-11-20T12:31:38;10.50;;;6.70;;
6143;SDS011;3103;49.492;8.474;2022-11-20T12:38:15;8.13;;;4.93;;
6143;SDS011;3103;49.492;8.474;2022-11-20T12:49:08;9.53;;;5.87;;
6143;SDS011;3103;49.492;8.474;2022-11-20T12:51:47;12.67;;;5.90;;
6143;SDS011;3103;49.492;8.474;2022-11-20T13:00:20;7.87;;;5.07;;
6143;SDS011;3103;49.492;8.474;2022-11-20T13:05:53;6.33;;;3.80;;
6143;SDS011;3103;49.492;8.474;2022-11-20T13:08:42;8.27;;;4.03;;
6143;SDS011;3103;49.492;8.474;2022-11-20T13:11:25;7.10;;;3.90;;
6143;SDS011;3103;49.492;8.474;2022-11-20T13:14:23;9.53;;;4.80;;
6143;SDS011;3103;49.492;8.474;2022-11-20T13:19:39;7.93;;;4.80;;
6143;SDS011;3103;49.492;8.474;2022-11-20T13:22:08;11.73;;;6.27;;
6143;SDS011;3103;49.492;8.474;2022-11-20T13:24:35;8.13;;;5.07;;
6143;SDS011;3103;49.492;8.474;2022-11-20T13:27:03;9.43;;;5.30;;
6143;SDS011;3103;49.492;8.474;2022-11-20T13:29:41;15.83;;;6.17;;
6143;SDS011;3103;49.492;8.474;2022-11-20T13:32:17;7.00;;;4.23;;
6143;SDS011;3103;49.492;8.474;2022-11-20T13:34:54;4.50;;;3.13;;
6143;SDS011;3103;49.492;8.474;2022-11-20T13:42:56;9.67;;;2.90;;
6143;SDS011;3103;49.492;8.474;2022-11-20T13:45:42;3.57;;;2.43;;
6143;SDS011;3103;49.492;8.474;2022-11-20T13:48:21;4.87;;;3.83;;
6143;SDS011;3103;49.492;8.474;2022-11-20T14:01:43;3.83;;;2.20;;
6143;SDS011;3103;49.492;8.474;2022-11-20T14:04:14;3.83;;;2.50;;
6143;SDS011;3103;49.492;8.474;2022-11-20T14:06:45;3.33;;;2.00;;
6143;SDS011;3103;49.492;8.474;2022-11-20T14:09:31;3.03;;;1.80;;
6143;SDS011;3103;49.492;8.474;2022-11-20T14:11:59;6.63;;;3.87;;
6143;SDS011;3103;49.492;8.474;2022-11-20T14:14:26;17.07;;;9.50;;
6143;SDS011;3103;49.492;8.474;2022-11-20T14:17:05;12.80;;;6.80;;
6143;SDS011;3103;49.492;8.474;2022-11-20T14:19:33;11.37;;;6.23;;
6143;SDS011;3103;49.492;8.474;2022-11-20T14:22:17;13.83;;;6.40;;
6143;SDS011;3103;49.492;8.474;2022-11-20T14:24:47;10.73;;;5.03;;
6143;SDS011;3103;49.492;8.474;2022-11-20T14:27:36;7.07;;;3.27;;
6143;SDS011;3103;49.492;8.474;2022-11-20T14:30:04;7.73;;;5.03;;
6143;SDS011;3103;49.492;8.474;2022-11-20T14:32:38;9.43;;;5.23;;
6143;SDS011;3103;49.492;8.474;2022-11-20T14:35:07;6.57;;;4.00;;
6143;SDS011;3103;49.492;8.474;2022-11-20T14:37:37;6.90;;;3.53;;
6143;SDS011;3103;49.492;8.474;2022-11-20T14:40:23;6.43;;;3.57;;
6143;SDS011;3103;49.492;8.474;2022-11-20T14:42:58;6.20;;;2.60;;
6143;SDS011;3103;49.492;8.474;2022-11-20T14:45:26;5.87;;;2.70;;
6143;SDS011;3103;49.492;8.474;2022-11-20T14:47:55;5.33;;;2.93;;
6143;SDS011;3103;49.492;8.474;2022-11-20T14:50:26;4.50;;;2.70;;
6143;SDS011;3103;49.492;8.474;2022-11-20T14:52:55;2.37;;;1.47;;
6143;SDS011;3103;49.492;8.474;2022-11-20T14:55:33;3.63;;;1.83;;
6143;SDS011;3103;49.492;8.474;2022-11-20T14:58:02;3.43;;;1.70;;
6143;SDS011;3103;49.492;8.474;2022-11-20T15:00:32;2.00;;;1.77;;
6143;SDS011;3103;49.492;8.474;2022-11-20T15:03:00;4.90;;;1.80;;
6143;SDS011;3103;49.492;8.474;2022-11-20T15:05:49;5.43;;;1.80;;
6143;SDS011;3103;49.492;8.474;2022-11-20T15:08:16;2.47;;;1.80;;
6143;SDS011;3103;49.492;8.474;2022-11-20T15:10:47;3.03;;;1.80;;
6143;SDS011;3103;49.492;8.474;2022-11-20T15:13:49;4.23;;;2.47;;
6143;SDS011;3103;49.492;8.474;2022-11-20T15:16:13;3.90;;;2.30;;
6143;SDS011;3103;49.492;8.474;2022-11-20T15:18:44;3.67;;;1.80;;
6143;SDS011;3103;49.492;8.474;2022-11-20T15:21:12;2.10;;;1.77;;
6143;SDS011;3103;49.492;8.474;2022-11-20T15:23:40;5.63;;;2.00;;
6143;SDS011;3103;49.492;8.474;2022-11-20T15:26:07;4.27;;;2.20;;
6143;SDS011;3103;49.492;8.474;2022-11-20T15:28:41;7.17;;;2.97;;
6143;SDS011;3103;49.492;8.474;2022-11-20T15:31:14;6.07;;;2.10;;
6143;SDS011;3103;49.492;8.474;2022-11-20T15:33:42;2.83;;;1.87;;
6143;SDS011;3103;49.492;8.474;2022-11-20T15:36:09;4.27;;;2.00;;
6143;SDS011;3103;49.492;8.474;2022-11-20T15:38:36;8.17;;;2.70;;
6143;SDS011;3103;49.492;8.474;2022-11-20T15:41:03;4.13;;;2.20;;
6143;SDS011;3103;49.492;8.474;2022-11-20T15:43:30;6.07;;;2.03;;
6143;SDS011;3103;49.492;8.474;2022-11-20T15:45:59;2.10;;;1.63;;
6143;SDS011;3103;49.492;8.474;2022-11-20T15:48:28;2.40;;;1.93;;
6143;SDS011;3103;49.492;8.474;2022-11-20T15:53:30;2.07;;;1.60;;
6143;SDS011;3103;49.492;8.474;2022-11-20T15:55:56;3.53;;;1.87;;
6143;SDS011;3103;49.492;8.474;2022-11-20T15:58:23;2.87;;;1.77;;
6143;SDS011;3103;49.492;8.474;2022-11-20T16:00:50;2.77;;;1.80;;
6143;SDS011;3103;49.492;8.474;2022-11-20T16:03:17;8.13;;;3.23;;
6143;SDS011;3103;49.492;8.474;2022-11-20T16:05:44;6.63;;;2.47;;
6143;SDS011;3103;49.492;8.474;2022-11-20T16:08:11;3.83;;;2.53;;
6143;SDS011;3103;49.492;8.474;2022-11-20T16:10:38;5.47;;;2.67;;
6143;SDS011;3103;49.492;8.474;2022-11-20T16:13:24;3.20;;;2.43;;
6143;SDS011;3103;49.492;8.474;2022-11-20T16:16:19;7.20;;;2.87;;
6143;SDS011;3103;49.492;8.474;2022-11-20T16:18:49;10.63;;;5.27;;
6143;SDS011;3103;49.492;8.474;2022-11-20T16:21:16;16.80;;;7.07;;
6143;SDS011;3103;49.492;8.474;2022-11-20T16:23:43;9.93;;;3.00;;
6143;SDS011;3103;49.492;8.474;2022-11-20T16:26:14;10.77;;;5.00;;
6143;SDS011;3103;49.492;8.474;2022-11-20T16:28:43;12.10;;;5.63;;
6143;SDS011;3103;49.492;8.474;2022-11-20T16:33:48;4.97;;;3.20;;
6143;SDS011;3103;49.492;8.474;2022-11-20T16:36:17;4.20;;;2.73;;
6143;SDS011;3103;49.492;8.474;2022-11-20T16:38:45;5.20;;;2.60;;
6143;SDS011;3103;49.492;8.474;2022-11-20T16:41:12;4.73;;;2.80;;
6143;SDS011;3103;49.492;8.474;2022-11-20T16:43:45;3.40;;;2.23;;
6143;SDS011;3103;49.492;8.474;2022-11-20T16:46:14;4.27;;;2.37;;
6143;SDS011;3103;49.492;8.474;2022-11-20T16:48:41;4.27;;;2.63;;
6143;SDS011;3103;49.492;8.474;2022-11-20T16:51:09;3.17;;;2.23;;
6143;SDS011;3103;49.492;8.474;2022-11-20T16:53:37;3.20;;;2.30;;
6143;SDS011;3103;49.492;8.474;2022-11-20T16:56:12;3.37;;;2.03;;